Tualatin, Oregon
Current Conditions -  °F | °C
As of 12:53 AM on Sunday 21 Dec 2014 (Local Time) from KUAO Reporting Station
Overcast Overcast  
Wind Chill: 57°   Ceiling: 6000
Heat Index: 57°   Visibility: 10mi
Dew Point: 56°   Wind: 14mph
Humidity: 96%   Direction: 240°WSW
Pressure: 29.81"   Gusts: 29mph
Location:  45.38°N, 122.75°W
Report Text: KUAO 210853Z AUTO 24012G25KT 10SM FEW032 BKN060 OVC090 14/13 A2981 RMK AO2 RAE16 SLP093 P0000 60003 T01390133 53026
Loading
Personal Weather Stations






























Interactive Weather Map New forecast layout! Learn more

10-Day Weather Forecast

Advertisements
Track Severe Weather on mobile